Weather at Adolfo Suárez Madrid–Barajas Airport

Public forecast

Using degrees Celsius for public forecast. Weather courtesy of forecast.io.

Current aviation weather report (METAR) for Adolfo Suárez Madrid–Barajas Airport

Retrieved 2021/09/25 06:00 UTC (16 minutes ago):

LEMD 250600Z 21006KT 9999 FEW030 16/13 Q1017 NOSIG

Aviation forecast (TAF) for Adolfo Suárez Madrid–Barajas Airport

Retrieved 2021/09/25 06:27 UTC (0 seconds ago):

TAF TAF LEMD 250500Z 2506/2612 VRB05KT 9999 BKN030 TX23/2515Z TN14/2606Z PROB30 TEMPO 2506/2509 18010KT PROB30 TEMPO 2506/2507 3500 BR BECMG 2508/2510 22010KT BECMG 2518/2520 VRB05KT